createdAt,value
2023-01-31T00:00:34.099Z,1010.86
2023-01-31T00:01:34.111Z,1010.86
2023-01-31T00:02:34.151Z,1010.87
2023-01-31T00:03:34.097Z,1010.90
2023-01-31T00:04:34.092Z,1010.92
2023-01-31T00:05:34.087Z,1010.90
2023-01-31T00:06:34.076Z,1010.89
2023-01-31T00:07:34.043Z,1010.89
2023-01-31T00:08:34.031Z,1010.89
2023-01-31T00:09:34.041Z,1010.89
2023-01-31T00:10:34.024Z,1010.90
2023-01-31T00:11:34.015Z,1010.91
2023-01-31T00:12:33.989Z,1010.90
2023-01-31T00:13:33.980Z,1010.93
2023-01-31T00:14:33.984Z,1010.92
2023-01-31T00:15:33.986Z,1010.91
2023-01-31T00:16:33.964Z,1010.93
2023-01-31T00:17:33.938Z,1010.91
2023-01-31T00:18:33.927Z,1010.93
2023-01-31T00:19:33.934Z,1010.92
2023-01-31T00:20:33.912Z,1010.90
2023-01-31T00:21:33.905Z,1010.86
2023-01-31T00:22:33.909Z,1010.84
2023-01-31T00:23:33.906Z,1010.79
2023-01-31T00:24:33.886Z,1010.76
2023-01-31T00:25:33.873Z,1010.75
2023-01-31T00:26:33.928Z,1010.74
2023-01-31T00:27:33.874Z,1010.76
2023-01-31T00:28:33.836Z,1010.78
2023-01-31T00:29:33.807Z,1010.78
2023-01-31T00:30:33.841Z,1010.78
2023-01-31T00:31:33.929Z,1010.76
2023-01-31T00:32:33.809Z,1010.76
2023-01-31T00:33:33.773Z,1010.74
2023-01-31T00:34:33.774Z,1010.69
2023-01-31T00:35:33.768Z,1010.64
2023-01-31T00:36:33.754Z,1010.63
2023-01-31T00:37:33.731Z,1010.62
2023-01-31T00:38:33.749Z,1010.61
2023-01-31T00:39:33.739Z,1010.60
2023-01-31T00:40:33.713Z,1010.57
2023-01-31T00:41:33.690Z,1010.58
2023-01-31T00:42:33.691Z,1010.63
2023-01-31T00:43:33.699Z,1010.69
2023-01-31T00:44:33.691Z,1010.71
2023-01-31T00:45:33.707Z,1010.73
2023-01-31T00:46:33.675Z,1010.73
2023-01-31T00:47:33.636Z,1010.73
2023-01-31T00:48:33.659Z,1010.73
2023-01-31T00:49:33.645Z,1010.74
2023-01-31T00:50:33.617Z,1010.74
2023-01-31T00:51:33.626Z,1010.71
2023-01-31T00:52:33.624Z,1010.70
2023-01-31T00:53:33.574Z,1010.73
2023-01-31T00:54:34.205Z,1010.72
2023-01-31T00:55:34.006Z,1010.74
2023-01-31T00:56:33.967Z,1010.75
2023-01-31T00:57:34.002Z,1010.76
2023-01-31T00:58:33.762Z,1010.75
2023-01-31T00:59:33.604Z,1010.73
2023-01-31T01:00:33.534Z,1010.75
2023-01-31T01:01:33.493Z,1010.71
2023-01-31T01:02:33.558Z,1010.69
2023-01-31T01:03:33.469Z,1010.67
2023-01-31T01:04:33.482Z,1010.73
2023-01-31T01:05:34.241Z,1010.73
2023-01-31T01:06:33.822Z,1010.68
2023-01-31T01:07:33.451Z,1010.68
2023-01-31T01:08:33.423Z,1010.71
2023-01-31T01:09:33.556Z,1010.72
2023-01-31T01:10:33.536Z,1010.74
2023-01-31T01:11:33.418Z,1010.74
2023-01-31T01:12:33.396Z,1010.72
2023-01-31T01:13:33.386Z,1010.69
2023-01-31T01:14:33.374Z,1010.68
2023-01-31T01:15:33.962Z,1010.66
2023-01-31T01:16:33.364Z,1010.65
2023-01-31T01:17:33.682Z,1010.66
2023-01-31T01:18:33.587Z,1010.65
2023-01-31T01:19:33.727Z,1010.66
2023-01-31T01:20:33.376Z,1010.66
2023-01-31T01:21:33.435Z,1010.67
2023-01-31T01:22:33.339Z,1010.67
2023-01-31T01:23:33.275Z,1010.68
2023-01-31T01:24:33.291Z,1010.69
2023-01-31T01:25:33.270Z,1010.70
2023-01-31T01:26:34.398Z,1010.69
2023-01-31T01:27:34.369Z,1010.68
2023-01-31T01:28:33.688Z,1010.69
2023-01-31T01:29:33.575Z,1010.70
2023-01-31T01:30:33.559Z,1010.75
2023-01-31T01:31:33.337Z,1010.78
2023-01-31T01:32:33.217Z,1010.80
2023-01-31T01:33:33.166Z,1010.77
2023-01-31T01:34:33.166Z,1010.75
2023-01-31T01:35:34.159Z,1010.74
2023-01-31T01:36:33.652Z,1010.73
2023-01-31T01:37:33.128Z,1010.72
2023-01-31T01:38:33.605Z,1010.67
2023-01-31T01:39:33.108Z,1010.67
2023-01-31T01:40:33.508Z,1010.72
2023-01-31T01:41:33.381Z,1010.74
2023-01-31T01:42:33.223Z,1010.74
2023-01-31T01:43:33.113Z,1010.72
2023-01-31T01:44:33.069Z,1010.72
2023-01-31T01:45:33.110Z,1010.72
2023-01-31T01:46:33.062Z,1010.72
2023-01-31T01:47:33.054Z,1010.71
2023-01-31T01:48:32.999Z,1010.65
2023-01-31T01:49:33.006Z,1010.63
2023-01-31T01:50:33.024Z,1010.63
2023-01-31T01:51:33.027Z,1010.67
2023-01-31T01:52:32.981Z,1010.69
2023-01-31T01:53:32.973Z,1010.69
2023-01-31T01:54:32.955Z,1010.71
2023-01-31T01:55:32.965Z,1010.74
2023-01-31T01:56:32.972Z,1010.76
2023-01-31T01:57:32.953Z,1010.76
2023-01-31T01:58:32.946Z,1010.77
2023-01-31T01:59:32.898Z,1010.77
2023-01-31T02:00:32.947Z,1010.75
2023-01-31T02:01:32.908Z,1010.77
2023-01-31T02:02:32.995Z,1010.75
2023-01-31T02:03:32.910Z,1010.76
2023-01-31T02:04:32.853Z,1010.78
2023-01-31T02:05:32.825Z,1010.78
2023-01-31T02:06:32.885Z,1010.78
2023-01-31T02:07:32.852Z,1010.76
2023-01-31T02:08:32.827Z,1010.81
2023-01-31T02:09:32.810Z,1010.80
2023-01-31T02:10:32.809Z,1010.84
2023-01-31T02:11:32.782Z,1010.87
2023-01-31T02:12:32.779Z,1010.90
2023-01-31T02:13:32.798Z,1010.89
2023-01-31T02:14:32.791Z,1010.92
2023-01-31T02:15:32.768Z,1010.98
2023-01-31T02:16:32.794Z,1011.04
2023-01-31T02:17:32.723Z,1011.04
2023-01-31T02:18:32.797Z,1011.03
2023-01-31T02:19:32.705Z,1011.01
2023-01-31T02:20:32.692Z,1011.04
2023-01-31T02:21:32.715Z,1011.05
2023-01-31T02:22:32.676Z,1011.06
2023-01-31T02:23:32.677Z,1011.06
2023-01-31T02:24:32.695Z,1011.06
2023-01-31T02:25:32.670Z,1011.07
2023-01-31T02:26:32.676Z,1011.04
2023-01-31T02:27:32.665Z,1011.04
2023-01-31T02:28:32.627Z,1011.06
2023-01-31T02:29:32.618Z,1011.06
2023-01-31T02:30:32.677Z,1011.04
2023-01-31T02:31:32.608Z,1011.02
2023-01-31T02:32:32.574Z,1011.03
2023-01-31T02:33:32.580Z,1011.05
2023-01-31T02:34:32.573Z,1011.07
2023-01-31T02:35:32.591Z,1011.10
2023-01-31T02:36:32.557Z,1011.09
2023-01-31T02:37:32.558Z,1011.05
2023-01-31T02:38:32.520Z,1010.99
2023-01-31T02:39:32.534Z,1010.96
2023-01-31T02:40:32.510Z,1011.00
2023-01-31T02:41:32.486Z,1011.03
2023-01-31T02:42:32.507Z,1011.02
2023-01-31T02:43:32.463Z,1011.02
2023-01-31T02:44:32.487Z,1011.01
2023-01-31T02:45:32.491Z,1011.02
2023-01-31T02:46:32.461Z,1011.03
2023-01-31T02:47:32.450Z,1011.02
2023-01-31T02:48:32.407Z,1011.00
2023-01-31T02:49:32.389Z,1010.98
2023-01-31T02:50:32.414Z,1010.97
2023-01-31T02:51:32.421Z,1010.93
2023-01-31T02:52:32.390Z,1010.90
2023-01-31T02:53:32.382Z,1010.87
2023-01-31T02:54:32.397Z,1010.88
2023-01-31T02:55:32.332Z,1010.89
2023-01-31T02:56:32.343Z,1010.87
2023-01-31T02:57:32.318Z,1010.86
2023-01-31T02:58:32.324Z,1010.84
2023-01-31T02:59:32.298Z,1010.81
2023-01-31T03:00:32.296Z,1010.79
2023-01-31T03:01:32.357Z,1010.78
2023-01-31T03:02:32.347Z,1010.81
2023-01-31T03:03:32.354Z,1010.84
2023-01-31T03:04:32.275Z,1010.82
2023-01-31T03:05:32.243Z,1010.82
2023-01-31T03:06:32.249Z,1010.79
2023-01-31T03:07:32.208Z,1010.76
2023-01-31T03:08:32.220Z,1010.75
2023-01-31T03:09:32.800Z,1010.71
2023-01-31T03:10:32.191Z,1010.71
2023-01-31T03:11:32.166Z,1010.69
2023-01-31T03:12:32.199Z,1010.65
2023-01-31T03:13:32.160Z,1010.59
2023-01-31T03:14:32.171Z,1010.59
2023-01-31T03:15:32.157Z,1010.64
2023-01-31T03:16:32.191Z,1010.64
2023-01-31T03:17:32.126Z,1010.66
2023-01-31T03:18:32.113Z,1010.66
2023-01-31T03:19:32.139Z,1010.61
2023-01-31T03:20:32.086Z,1010.60
2023-01-31T03:21:32.066Z,1010.53
2023-01-31T03:22:32.076Z,1010.57
2023-01-31T03:23:32.053Z,1010.58
2023-01-31T03:24:32.082Z,1010.56
2023-01-31T03:25:32.056Z,1010.53
2023-01-31T03:26:32.077Z,1010.48
2023-01-31T03:27:32.270Z,1010.46
2023-01-31T03:28:32.000Z,1010.45
2023-01-31T03:29:31.998Z,1010.42
2023-01-31T03:30:32.000Z,1010.38
2023-01-31T03:31:32.076Z,1010.33
2023-01-31T03:32:31.987Z,1010.27
2023-01-31T03:33:32.059Z,1010.21
2023-01-31T03:34:32.003Z,1010.22
2023-01-31T03:35:31.998Z,1010.25
2023-01-31T03:36:31.939Z,1010.25
2023-01-31T03:37:31.902Z,1010.26
2023-01-31T03:38:32.624Z,1010.25
2023-01-31T03:39:31.882Z,1010.26
2023-01-31T03:40:31.896Z,1010.21
2023-01-31T03:41:32.158Z,1010.21
2023-01-31T03:42:31.868Z,1010.17
2023-01-31T03:43:31.855Z,1010.14
2023-01-31T03:44:32.080Z,1010.12
2023-01-31T03:45:31.827Z,1010.12
2023-01-31T03:46:32.061Z,1010.11
2023-01-31T03:47:31.817Z,1010.13
2023-01-31T03:48:32.132Z,1010.13
2023-01-31T03:49:31.793Z,1010.12
2023-01-31T03:50:32.467Z,1010.13
2023-01-31T03:51:31.765Z,1010.13
2023-01-31T03:52:32.339Z,1010.10
2023-01-31T03:53:31.743Z,1010.13
2023-01-31T03:54:32.461Z,1010.12
2023-01-31T03:55:31.724Z,1010.12
2023-01-31T03:56:31.709Z,1010.14
2023-01-31T03:57:31.972Z,1010.14
2023-01-31T03:58:32.362Z,1010.15
2023-01-31T03:59:32.370Z,1010.13
2023-01-31T04:00:32.238Z,1010.11
2023-01-31T04:01:32.359Z,1010.08
2023-01-31T04:02:31.916Z,1010.07
2023-01-31T04:03:32.322Z,1010.02
2023-01-31T04:04:32.195Z,1009.97
2023-01-31T04:05:31.621Z,1009.94
2023-01-31T04:06:32.220Z,1009.94
2023-01-31T04:07:31.630Z,1009.96
2023-01-31T04:08:32.294Z,1009.95
2023-01-31T04:09:32.101Z,1009.98
2023-01-31T04:10:32.257Z,1009.95
2023-01-31T04:11:32.120Z,1009.96
2023-01-31T04:12:32.127Z,1009.94
2023-01-31T04:13:32.079Z,1009.92
2023-01-31T04:14:32.086Z,1009.91
2023-01-31T04:15:33.195Z,1009.90
2023-01-31T04:16:32.252Z,1009.86
2023-01-31T04:17:32.129Z,1009.88
2023-01-31T04:18:32.025Z,1009.86
2023-01-31T04:19:33.282Z,1009.85
2023-01-31T04:20:32.023Z,1009.86
2023-01-31T04:21:32.141Z,1009.86
2023-01-31T04:22:31.980Z,1009.85
2023-01-31T04:23:32.211Z,1009.80
2023-01-31T04:24:32.023Z,1009.78
2023-01-31T04:25:32.849Z,1009.78
2023-01-31T04:26:32.132Z,1009.77
2023-01-31T04:27:31.974Z,1009.80
2023-01-31T04:28:32.031Z,1009.76
2023-01-31T04:29:31.909Z,1009.75
2023-01-31T04:30:32.007Z,1009.76
2023-01-31T04:31:32.149Z,1009.76
2023-01-31T04:32:31.861Z,1009.74
2023-01-31T04:33:31.984Z,1009.72
2023-01-31T04:34:31.366Z,1009.72
2023-01-31T04:35:31.988Z,1009.70
2023-01-31T04:36:31.934Z,1009.75
2023-01-31T04:37:31.850Z,1009.70
2023-01-31T04:38:31.893Z,1009.72
2023-01-31T04:39:31.874Z,1009.74
2023-01-31T04:40:31.721Z,1009.77
2023-01-31T04:41:32.012Z,1009.81
2023-01-31T04:42:31.848Z,1009.78
2023-01-31T04:43:31.871Z,1009.79
2023-01-31T04:44:31.880Z,1009.76
2023-01-31T04:45:31.693Z,1009.78
2023-01-31T04:46:32.016Z,1009.77
2023-01-31T04:47:31.847Z,1009.81
2023-01-31T04:48:31.790Z,1009.78
2023-01-31T04:49:31.725Z,1009.79
2023-01-31T04:50:31.745Z,1009.81
2023-01-31T04:51:31.756Z,1009.86
2023-01-31T04:52:31.731Z,1009.82
2023-01-31T04:53:31.770Z,1009.79
2023-01-31T04:54:31.671Z,1009.79
2023-01-31T04:55:31.743Z,1009.81
2023-01-31T04:56:31.523Z,1009.77
2023-01-31T04:57:31.716Z,1009.70
2023-01-31T04:58:31.669Z,1009.76
2023-01-31T04:59:31.074Z,1009.68
2023-01-31T05:00:31.626Z,1009.68
2023-01-31T05:01:31.777Z,1009.71
2023-01-31T05:02:31.877Z,1009.67
2023-01-31T05:03:31.056Z,1009.63
2023-01-31T05:04:31.559Z,1009.62
2023-01-31T05:05:31.577Z,1009.56
2023-01-31T05:06:31.467Z,1009.58
2023-01-31T05:07:31.514Z,1009.53
2023-01-31T05:08:31.496Z,1009.51
2023-01-31T05:09:31.468Z,1009.52
2023-01-31T05:10:31.590Z,1009.49
2023-01-31T05:11:31.404Z,1009.49
2023-01-31T05:12:31.609Z,1009.46
2023-01-31T05:13:31.385Z,1009.41
2023-01-31T05:14:31.384Z,1009.40
2023-01-31T05:15:31.493Z,1009.38
2023-01-31T05:16:31.551Z,1009.33
2023-01-31T05:17:31.433Z,1009.28
2023-01-31T05:18:31.428Z,1009.30
2023-01-31T05:19:31.459Z,1009.32
2023-01-31T05:20:31.365Z,1009.25
2023-01-31T05:21:31.456Z,1009.24
2023-01-31T05:22:31.374Z,1009.27
2023-01-31T05:23:31.364Z,1009.23
2023-01-31T05:24:31.376Z,1009.18
2023-01-31T05:25:31.522Z,1009.16
2023-01-31T05:26:31.499Z,1009.19
2023-01-31T05:27:31.512Z,1009.17
2023-01-31T05:28:31.189Z,1009.15
2023-01-31T05:29:30.787Z,1009.16
2023-01-31T05:30:31.340Z,1009.15
2023-01-31T05:31:31.436Z,1009.16
2023-01-31T05:32:31.208Z,1009.14
2023-01-31T05:33:31.288Z,1009.10
2023-01-31T05:34:31.225Z,1009.08
2023-01-31T05:35:31.192Z,1009.13
2023-01-31T05:36:31.196Z,1009.11
2023-01-31T05:37:31.148Z,1009.07
2023-01-31T05:38:31.256Z,1009.07
2023-01-31T05:39:31.273Z,1009.09
2023-01-31T05:40:31.183Z,1009.09
2023-01-31T05:41:31.236Z,1009.03
2023-01-31T05:42:31.186Z,1009.01
2023-01-31T05:43:31.259Z,1009.00
2023-01-31T05:44:30.634Z,1008.98
2023-01-31T05:45:31.223Z,1008.93
2023-01-31T05:46:31.031Z,1008.86
2023-01-31T05:47:31.092Z,1008.91
2023-01-31T05:48:31.083Z,1008.87
2023-01-31T05:49:31.049Z,1008.79
2023-01-31T05:50:31.078Z,1008.81
2023-01-31T05:51:30.953Z,1008.78
2023-01-31T05:52:31.035Z,1008.80
2023-01-31T05:53:31.131Z,1008.76
2023-01-31T05:54:31.300Z,1008.78
2023-01-31T05:55:31.182Z,1008.77
2023-01-31T05:56:31.096Z,1008.75
2023-01-31T05:57:30.940Z,1008.72
2023-01-31T05:58:30.939Z,1008.70
2023-01-31T05:59:31.057Z,1008.71
2023-01-31T06:00:31.011Z,1008.68
2023-01-31T06:01:30.921Z,1008.69
2023-01-31T06:02:31.058Z,1008.68
2023-01-31T06:03:31.041Z,1008.75
2023-01-31T06:04:30.856Z,1008.73
2023-01-31T06:05:30.778Z,1008.75
2023-01-31T06:06:30.843Z,1008.76
2023-01-31T06:07:30.464Z,1008.72
2023-01-31T06:08:30.914Z,1008.67
2023-01-31T06:09:30.794Z,1008.71
2023-01-31T06:10:30.821Z,1008.67
2023-01-31T06:11:30.884Z,1008.65
2023-01-31T06:12:30.907Z,1008.67
2023-01-31T06:13:30.727Z,1008.65
2023-01-31T06:14:30.854Z,1008.64
2023-01-31T06:15:30.688Z,1008.68
2023-01-31T06:16:30.839Z,1008.73
2023-01-31T06:17:31.246Z,1008.75
2023-01-31T06:18:30.837Z,1008.81
2023-01-31T06:19:30.647Z,1008.80
2023-01-31T06:20:30.625Z,1008.66
2023-01-31T06:21:30.704Z,1008.72
2023-01-31T06:22:30.265Z,1008.72
2023-01-31T06:23:30.701Z,1008.73
2023-01-31T06:24:30.626Z,1008.80
2023-01-31T06:25:30.657Z,1008.79
2023-01-31T06:26:30.664Z,1008.79
2023-01-31T06:27:30.536Z,1008.75
2023-01-31T06:28:30.655Z,1008.74
2023-01-31T06:29:30.625Z,1008.76
2023-01-31T06:30:30.853Z,1008.76
2023-01-31T06:31:30.851Z,1008.75
2023-01-31T06:32:30.560Z,1008.79
2023-01-31T06:33:43.579Z,1008.78
2023-01-31T06:34:30.465Z,1008.77
2023-01-31T06:35:30.532Z,1008.87
2023-01-31T06:36:30.494Z,1008.87
2023-01-31T06:37:30.601Z,1008.91
2023-01-31T06:38:30.138Z,1008.96
2023-01-31T06:39:30.567Z,1008.91
2023-01-31T06:40:30.583Z,1008.91
2023-01-31T06:41:30.483Z,1008.98
2023-01-31T06:42:30.580Z,1008.96
2023-01-31T06:43:30.439Z,1008.91
2023-01-31T06:44:30.419Z,1008.97
2023-01-31T06:45:30.599Z,1008.93
2023-01-31T06:46:30.430Z,1008.99
2023-01-31T06:47:30.692Z,1008.95
2023-01-31T06:48:30.437Z,1008.99
2023-01-31T06:49:30.439Z,1008.89
2023-01-31T06:50:30.269Z,1008.92
2023-01-31T06:51:30.332Z,1008.93
2023-01-31T06:52:30.598Z,1008.94
2023-01-31T06:53:30.403Z,1008.94
2023-01-31T06:54:30.472Z,1009.00
2023-01-31T06:55:30.381Z,1008.81
2023-01-31T06:56:30.425Z,1008.84
2023-01-31T06:57:30.365Z,1008.84
2023-01-31T06:58:30.318Z,1008.83
2023-01-31T06:59:30.290Z,1008.91
2023-01-31T07:00:30.521Z,1008.82
2023-01-31T07:01:30.336Z,1008.79
2023-01-31T07:02:30.314Z,1008.77
2023-01-31T07:03:30.204Z,1008.77
2023-01-31T07:04:30.402Z,1008.77
2023-01-31T07:05:30.489Z,1008.73
2023-01-31T07:06:30.405Z,1008.71
2023-01-31T07:07:30.281Z,1008.68
2023-01-31T07:08:30.324Z,1008.65
2023-01-31T07:09:29.776Z,1008.64
2023-01-31T07:10:30.285Z,1008.67
2023-01-31T07:11:30.181Z,1008.66
2023-01-31T07:12:30.268Z,1008.64
2023-01-31T07:13:30.117Z,1008.64
2023-01-31T07:14:30.098Z,1008.60
2023-01-31T07:15:30.056Z,1008.63
2023-01-31T07:16:30.147Z,1008.63
2023-01-31T07:17:30.117Z,1008.61
2023-01-31T07:18:30.137Z,1008.60
2023-01-31T07:19:30.045Z,1008.68
2023-01-31T07:20:30.287Z,1008.69
2023-01-31T07:21:30.163Z,1008.62
2023-01-31T07:22:30.082Z,1008.63
2023-01-31T07:23:30.065Z,1008.61
2023-01-31T07:24:30.206Z,1008.59
2023-01-31T07:25:30.120Z,1008.61
2023-01-31T07:26:29.986Z,1008.59
2023-01-31T07:27:30.108Z,1008.59
2023-01-31T07:28:29.989Z,1008.56
2023-01-31T07:29:30.062Z,1008.50
2023-01-31T07:30:30.295Z,1008.57
2023-01-31T07:31:30.080Z,1008.57
2023-01-31T07:32:29.999Z,1008.50
2023-01-31T07:33:29.877Z,1008.55
2023-01-31T07:34:30.087Z,1008.55
2023-01-31T07:35:30.098Z,1008.50
2023-01-31T07:36:29.925Z,1008.42
2023-01-31T07:37:29.976Z,1008.45
2023-01-31T07:38:29.980Z,1008.42
2023-01-31T07:39:30.114Z,1008.42
2023-01-31T07:40:29.917Z,1008.41
2023-01-31T07:41:30.026Z,1008.40
2023-01-31T07:42:29.868Z,1008.43
2023-01-31T07:43:29.958Z,1008.42
2023-01-31T07:44:29.801Z,1008.48
2023-01-31T07:45:29.698Z,1008.47
2023-01-31T07:46:29.912Z,1008.47
2023-01-31T07:47:29.794Z,1008.48
2023-01-31T07:48:29.784Z,1008.42
2023-01-31T07:49:29.739Z,1008.43
2023-01-31T07:50:29.758Z,1008.45
2023-01-31T07:51:29.788Z,1008.43
2023-01-31T07:52:29.633Z,1008.48
2023-01-31T07:53:29.918Z,1008.50
2023-01-31T07:54:29.774Z,1008.43
2023-01-31T07:55:29.791Z,1008.34
2023-01-31T07:56:29.637Z,1008.38
2023-01-31T07:57:29.724Z,1008.42
2023-01-31T07:58:29.546Z,1008.36
2023-01-31T07:59:29.743Z,1008.27
2023-01-31T08:00:29.711Z,1008.31
2023-01-31T08:01:29.857Z,1008.22
2023-01-31T08:02:29.542Z,1008.24
2023-01-31T08:03:30.667Z,1008.25
2023-01-31T08:04:29.534Z,1008.26
2023-01-31T08:05:29.456Z,1008.22
2023-01-31T08:06:29.479Z,1008.19
2023-01-31T08:07:29.521Z,1008.20
2023-01-31T08:08:29.605Z,1008.16
2023-01-31T08:09:29.564Z,1008.18
2023-01-31T08:10:29.468Z,1008.22
2023-01-31T08:11:29.408Z,1008.16
2023-01-31T08:12:29.375Z,1008.20
2023-01-31T08:13:29.419Z,1008.25
2023-01-31T08:14:29.386Z,1008.28
2023-01-31T08:15:29.427Z,1008.25
2023-01-31T08:16:29.298Z,1008.17
2023-01-31T08:17:29.550Z,1007.99
2023-01-31T08:18:29.362Z,1008.14
2023-01-31T08:19:29.536Z,1008.11
2023-01-31T08:20:29.440Z,1008.11
2023-01-31T08:21:29.426Z,1008.07
2023-01-31T08:22:29.351Z,1008.08
2023-01-31T08:23:29.408Z,1007.96
2023-01-31T08:24:29.304Z,1008.01
2023-01-31T08:25:29.406Z,1007.97
2023-01-31T08:26:29.368Z,1007.88
2023-01-31T08:27:29.508Z,1007.86
2023-01-31T08:28:29.255Z,1007.86
2023-01-31T08:29:29.419Z,1007.86
2023-01-31T08:30:29.618Z,1007.86
2023-01-31T08:31:29.534Z,1007.90
2023-01-31T08:32:29.312Z,1007.85
2023-01-31T08:33:29.126Z,1007.80
2023-01-31T08:34:29.270Z,1007.72
2023-01-31T08:35:29.302Z,1007.79
2023-01-31T08:36:29.508Z,1007.83
2023-01-31T08:37:29.190Z,1007.86
2023-01-31T08:38:29.228Z,1007.91
2023-01-31T08:39:29.235Z,1007.94
2023-01-31T08:40:29.069Z,1007.87
2023-01-31T08:41:29.247Z,1007.80
2023-01-31T08:42:29.193Z,1007.79
2023-01-31T08:43:29.122Z,1007.79
2023-01-31T08:44:29.059Z,1007.83
2023-01-31T08:45:29.135Z,1007.85
2023-01-31T08:46:29.192Z,1007.81
2023-01-31T08:47:29.038Z,1007.82
2023-01-31T08:48:29.093Z,1007.74
2023-01-31T08:49:29.185Z,1007.67
2023-01-31T08:50:29.087Z,1007.79
2023-01-31T08:51:29.071Z,1007.68
2023-01-31T08:52:28.962Z,1007.67
2023-01-31T08:53:28.947Z,1007.49
2023-01-31T08:54:29.017Z,1007.48
2023-01-31T08:55:29.190Z,1007.49
2023-01-31T08:56:28.942Z,1007.48
2023-01-31T08:57:28.937Z,1007.44
2023-01-31T08:58:28.934Z,1007.47
2023-01-31T08:59:28.963Z,1007.54
2023-01-31T09:00:28.979Z,1007.46
2023-01-31T09:01:29.160Z,1007.41
2023-01-31T09:02:28.908Z,1007.47
2023-01-31T09:03:29.048Z,1007.38
2023-01-31T09:04:28.918Z,1007.45
2023-01-31T09:05:28.942Z,1007.42
2023-01-31T09:06:29.140Z,1007.47
2023-01-31T09:07:28.844Z,1007.55
2023-01-31T09:08:28.840Z,1007.57
2023-01-31T09:09:30.194Z,1007.51
2023-01-31T09:10:28.889Z,1007.43
2023-01-31T09:11:28.857Z,1007.44
2023-01-31T09:12:28.905Z,1007.45
2023-01-31T09:13:28.677Z,1007.42
2023-01-31T09:14:28.819Z,1007.41
2023-01-31T09:15:28.763Z,1007.44
2023-01-31T09:16:29.031Z,1007.39
2023-01-31T09:17:28.763Z,1007.48
2023-01-31T09:18:28.834Z,1007.41
2023-01-31T09:19:28.616Z,1007.46
2023-01-31T09:20:28.811Z,1007.44
2023-01-31T09:21:28.706Z,1007.51
2023-01-31T09:22:28.651Z,1007.52
2023-01-31T09:23:28.565Z,1007.52
2023-01-31T09:24:28.620Z,1007.52
2023-01-31T09:25:43.036Z,1007.43
2023-01-31T09:26:28.364Z,1007.42
2023-01-31T09:27:28.705Z,1007.47
2023-01-31T09:28:28.716Z,1007.46
2023-01-31T09:29:28.615Z,1007.38
2023-01-31T09:30:28.754Z,1007.41
2023-01-31T09:31:28.737Z,1007.36
2023-01-31T09:32:28.653Z,1007.39
2023-01-31T09:33:28.769Z,1007.29
2023-01-31T09:34:28.670Z,1007.34
2023-01-31T09:35:28.219Z,1007.27
2023-01-31T09:36:28.632Z,1007.27
2023-01-31T09:37:28.445Z,1007.23
2023-01-31T09:38:28.660Z,1007.21
2023-01-31T09:39:28.404Z,1007.21
2023-01-31T09:40:28.475Z,1007.26
2023-01-31T09:41:28.544Z,1007.26
2023-01-31T09:42:28.373Z,1007.23
2023-01-31T09:43:28.595Z,1007.10
2023-01-31T09:44:28.422Z,1007.13
2023-01-31T09:45:28.479Z,1007.12
2023-01-31T09:46:28.490Z,1007.11
2023-01-31T09:47:28.427Z,1007.14
2023-01-31T09:48:28.465Z,1007.17
2023-01-31T09:49:28.417Z,1007.14
2023-01-31T09:50:28.285Z,1007.06
2023-01-31T09:51:28.512Z,1007.11
2023-01-31T09:52:28.511Z,1007.09
2023-01-31T09:53:28.331Z,1006.94
2023-01-31T09:54:28.369Z,1007.15
2023-01-31T09:55:28.543Z,1007.17
2023-01-31T09:56:28.432Z,1007.14
2023-01-31T09:57:28.458Z,1007.21
2023-01-31T09:58:28.336Z,1007.20
2023-01-31T09:59:28.272Z,1007.21
2023-01-31T10:00:28.002Z,1007.21
2023-01-31T10:01:28.193Z,1007.24
2023-01-31T10:02:28.379Z,1007.24
2023-01-31T10:03:28.278Z,1007.18
2023-01-31T10:04:28.180Z,1007.19
2023-01-31T10:05:28.126Z,1007.20
2023-01-31T10:06:28.198Z,1007.24
2023-01-31T10:07:28.177Z,1007.27
2023-01-31T10:08:28.219Z,1007.28
2023-01-31T10:09:28.118Z,1007.22
2023-01-31T10:10:27.886Z,1007.21
2023-01-31T10:11:28.136Z,1007.30
2023-01-31T10:12:28.001Z,1007.26
2023-01-31T10:13:28.084Z,1007.19
2023-01-31T10:14:27.982Z,1007.28
2023-01-31T10:15:28.089Z,1007.24
2023-01-31T10:16:28.040Z,1007.15
2023-01-31T10:17:28.104Z,1007.04
2023-01-31T10:18:28.011Z,1007.13
2023-01-31T10:19:27.965Z,1007.20
2023-01-31T10:20:27.924Z,1007.18
2023-01-31T10:21:28.058Z,1007.11
2023-01-31T10:22:27.941Z,1007.08
2023-01-31T10:23:28.031Z,1007.02
2023-01-31T10:24:27.930Z,1007.04
2023-01-31T10:25:28.152Z,1007.09
2023-01-31T10:26:28.013Z,1007.07
2023-01-31T10:27:27.894Z,1007.03
2023-01-31T10:28:27.872Z,1006.93
2023-01-31T10:29:28.229Z,1006.89
2023-01-31T10:30:27.862Z,1006.90
2023-01-31T10:31:28.123Z,1006.83
2023-01-31T10:32:27.846Z,1006.82
2023-01-31T10:33:27.843Z,1006.82
2023-01-31T10:34:28.024Z,1006.87
2023-01-31T10:35:28.098Z,1006.87
2023-01-31T10:36:27.924Z,1006.88
2023-01-31T10:37:27.705Z,1006.87
2023-01-31T10:38:27.822Z,1006.95
2023-01-31T10:39:27.784Z,1007.00
2023-01-31T10:40:27.815Z,1006.99
2023-01-31T10:41:27.670Z,1006.93
2023-01-31T10:42:27.818Z,1006.99
2023-01-31T10:43:27.752Z,1006.93
2023-01-31T10:44:27.861Z,1006.99
2023-01-31T10:45:27.520Z,1007.00
2023-01-31T10:46:27.735Z,1006.90
2023-01-31T10:47:27.494Z,1006.81
2023-01-31T10:48:27.500Z,1006.72
2023-01-31T10:49:27.454Z,1006.68
2023-01-31T10:50:27.457Z,1006.68
2023-01-31T10:51:27.468Z,1006.71
2023-01-31T10:52:27.454Z,1006.71
2023-01-31T10:53:27.407Z,1006.64
2023-01-31T10:54:27.428Z,1006.61
2023-01-31T10:55:27.428Z,1006.61
2023-01-31T10:56:27.381Z,1006.52
2023-01-31T10:57:27.391Z,1006.52
2023-01-31T10:58:27.396Z,1006.54
2023-01-31T10:59:27.364Z,1006.56
2023-01-31T11:00:27.388Z,1006.57
2023-01-31T11:01:27.526Z,1006.56
2023-01-31T11:02:27.419Z,1006.60
2023-01-31T11:03:27.318Z,1006.62
2023-01-31T11:04:27.292Z,1006.64
2023-01-31T11:05:27.325Z,1006.63
2023-01-31T11:06:27.287Z,1006.57
2023-01-31T11:07:27.290Z,1006.59
2023-01-31T11:08:27.300Z,1006.62
2023-01-31T11:09:27.299Z,1006.63
2023-01-31T11:10:27.271Z,1006.58
2023-01-31T11:11:27.277Z,1006.52
2023-01-31T11:12:27.269Z,1006.52
2023-01-31T11:13:27.241Z,1006.45
2023-01-31T11:14:27.210Z,1006.40
2023-01-31T11:15:27.239Z,1006.37
2023-01-31T11:16:27.241Z,1006.24
2023-01-31T11:17:27.225Z,1006.34
2023-01-31T11:18:27.184Z,1006.36
2023-01-31T11:19:27.193Z,1006.32
2023-01-31T11:20:27.183Z,1006.30
2023-01-31T11:21:27.134Z,1006.26
2023-01-31T11:22:27.138Z,1006.38
2023-01-31T11:23:27.117Z,1006.21
2023-01-31T11:24:28.739Z,1006.28
2023-01-31T11:25:27.118Z,1006.33
2023-01-31T11:26:27.121Z,1006.43
2023-01-31T11:27:27.089Z,1006.41
2023-01-31T11:28:27.076Z,1006.33
2023-01-31T11:29:27.073Z,1006.39
2023-01-31T11:30:27.218Z,1006.24
2023-01-31T11:31:27.268Z,1006.25
2023-01-31T11:32:27.037Z,1006.32
2023-01-31T11:33:27.019Z,1006.38
2023-01-31T11:34:27.026Z,1006.39
2023-01-31T11:35:27.004Z,1006.42
2023-01-31T11:36:27.054Z,1006.39
2023-01-31T11:37:27.040Z,1006.41
2023-01-31T11:38:26.959Z,1006.38
2023-01-31T11:39:27.028Z,1006.33
2023-01-31T11:40:26.935Z,1006.27
2023-01-31T11:41:26.941Z,1006.32
2023-01-31T11:42:26.924Z,1006.33
2023-01-31T11:43:26.901Z,1006.30
2023-01-31T11:44:26.925Z,1006.19
2023-01-31T11:45:26.892Z,1006.22
2023-01-31T11:46:26.894Z,1006.22
2023-01-31T11:47:26.888Z,1006.32
2023-01-31T11:48:26.875Z,1006.21
2023-01-31T11:49:26.849Z,1006.22
2023-01-31T11:50:28.300Z,1006.26
2023-01-31T11:51:26.819Z,1006.30
2023-01-31T11:52:26.820Z,1006.19
2023-01-31T11:53:26.811Z,1006.20
2023-01-31T11:54:26.856Z,1006.16
2023-01-31T11:55:26.819Z,1006.17
2023-01-31T11:56:26.775Z,1006.12
2023-01-31T11:57:26.780Z,1006.17
2023-01-31T11:58:26.789Z,1006.11
2023-01-31T11:59:26.751Z,1006.08
2023-01-31T12:00:26.740Z,1006.06
2023-01-31T12:01:26.728Z,1006.03
2023-01-31T12:02:26.734Z,1006.03
2023-01-31T12:03:26.722Z,1005.97
2023-01-31T12:04:26.768Z,1006.01
2023-01-31T12:05:26.699Z,1006.07